createdAt,value
2023-02-28T00:00:40.410Z,-0.79
2023-02-28T00:03:09.283Z,-0.80
2023-02-28T00:05:39.089Z,-0.83
2023-02-28T00:08:08.645Z,-0.85
2023-02-28T00:10:38.042Z,-0.87
2023-02-28T00:13:10.044Z,-0.89
2023-02-28T00:15:40.791Z,-0.90
2023-02-28T00:18:10.188Z,-0.93
2023-02-28T00:20:38.062Z,-0.94
2023-02-28T00:23:10.117Z,-0.93
2023-02-28T00:25:40.732Z,-0.94
2023-02-28T00:28:10.968Z,-0.94
2023-02-28T00:30:40.466Z,-0.95
2023-02-28T00:33:08.945Z,-0.94
2023-02-28T00:35:47.653Z,-0.95
2023-02-28T00:38:17.830Z,-0.94
2023-02-28T00:40:48.310Z,-0.94
2023-02-28T00:43:42.706Z,-0.96
2023-02-28T00:46:14.746Z,-0.95
2023-02-28T00:48:46.051Z,-0.97
2023-02-28T00:51:19.788Z,-0.99
2023-02-28T00:53:48.745Z,-1.01
2023-02-28T00:56:20.237Z,-1.02
2023-02-28T00:58:48.598Z,-1.05
2023-02-28T01:01:22.809Z,-1.06
2023-02-28T01:03:59.415Z,-1.09
2023-02-28T01:06:29.588Z,-1.11
2023-02-28T01:09:00.908Z,-1.10
2023-02-28T01:11:33.066Z,-1.14
2023-02-28T01:14:07.448Z,-1.17
2023-02-28T01:16:35.362Z,-1.20
2023-02-28T01:19:04.872Z,-1.22
2023-02-28T01:21:35.116Z,-1.26
2023-02-28T01:24:06.300Z,-1.25
2023-02-28T01:26:50.975Z,-1.27
2023-02-28T01:33:46.982Z,-1.27
2023-02-28T01:36:29.077Z,-1.27
2023-02-28T01:39:04.097Z,-1.27
2023-02-28T01:41:37.949Z,-1.29
2023-02-28T01:45:20.622Z,-1.26
2023-02-28T01:48:05.619Z,-1.24
2023-02-28T01:50:44.081Z,-1.23
2023-02-28T01:53:28.681Z,-1.22
2023-02-28T01:56:21.678Z,-1.20
2023-02-28T01:58:55.854Z,-1.17
2023-02-28T02:01:29.918Z,-1.13
2023-02-28T02:04:07.286Z,-1.09
2023-02-28T02:06:51.469Z,-1.06
2023-02-28T02:09:25.079Z,-1.03
2023-02-28T02:12:00.039Z,-0.99
2023-02-28T02:15:03.053Z,-0.96
2023-02-28T02:17:57.186Z,-0.94
2023-02-28T02:21:14.259Z,-0.91
2023-02-28T02:24:20.447Z,-0.88
2023-02-28T02:27:37.464Z,-0.83
2023-02-28T02:30:54.978Z,-0.77
2023-02-28T02:34:17.176Z,-0.70
2023-02-28T02:37:06.942Z,-0.66
2023-02-28T02:40:21.194Z,-0.62
2023-02-28T02:43:29.214Z,-0.57
2023-02-28T02:46:59.554Z,-0.52
2023-02-28T02:49:44.845Z,-0.46
2023-02-28T02:52:18.621Z,-0.44
2023-02-28T02:54:59.386Z,-0.42
2023-02-28T02:57:51.454Z,-0.40
2023-02-28T03:00:27.442Z,-0.40
2023-02-28T03:03:05.713Z,-0.41
2023-02-28T03:05:51.405Z,-0.41
2023-02-28T03:08:22.368Z,-0.40
2023-02-28T03:11:00.993Z,-0.37
2023-02-28T03:14:12.091Z,-0.36
2023-02-28T03:17:23.800Z,-0.36
2023-02-28T03:20:47.761Z,-0.32
2023-02-28T03:23:53.166Z,-0.29
2023-02-28T03:26:34.959Z,-0.26
2023-02-28T03:29:08.996Z,-0.26
2023-02-28T03:31:53.338Z,-0.24
2023-02-28T03:34:35.544Z,-0.21
2023-02-28T03:37:18.486Z,-0.21
2023-02-28T03:39:59.289Z,-0.20
2023-02-28T03:42:35.319Z,-0.17
2023-02-28T03:45:14.849Z,-0.13
2023-02-28T03:47:52.590Z,-0.14
2023-02-28T03:50:51.996Z,-0.09
2023-02-28T03:53:46.915Z,-0.07
2023-02-28T03:56:25.436Z,-0.04
2023-02-28T03:59:04.660Z,-0.02
2023-02-28T04:01:45.151Z,0.03
2023-02-28T04:04:15.592Z,0.03
2023-02-28T04:06:43.654Z,0.04
2023-02-28T04:09:16.426Z,0.05
2023-02-28T04:11:53.290Z,0.08
2023-02-28T04:14:24.009Z,0.10
2023-02-28T04:16:59.854Z,0.12
2023-02-28T04:22:19.293Z,0.17
2023-02-28T04:24:51.505Z,0.20
2023-02-28T04:27:36.975Z,0.21
2023-02-28T04:30:09.368Z,0.24
2023-02-28T04:32:41.156Z,0.25
2023-02-28T04:35:12.369Z,0.28
2023-02-28T04:37:42.047Z,0.30
2023-02-28T04:40:10.725Z,0.31
2023-02-28T04:42:40.231Z,0.31
2023-02-28T04:45:14.000Z,0.33
2023-02-28T04:47:41.565Z,0.33
2023-02-28T04:50:10.041Z,0.32
2023-02-28T04:52:40.038Z,0.31
2023-02-28T04:55:10.168Z,0.32
2023-02-28T04:57:38.628Z,0.29
2023-02-28T05:00:08.658Z,0.28
2023-02-28T05:02:39.064Z,0.31
2023-02-28T05:05:06.807Z,0.28
2023-02-28T05:07:37.022Z,0.28
2023-02-28T05:10:08.822Z,0.28
2023-02-28T05:12:36.821Z,0.26
2023-02-28T05:15:07.745Z,0.24
2023-02-28T05:17:36.120Z,0.22
2023-02-28T05:20:15.093Z,0.18
2023-02-28T05:22:48.785Z,0.16
2023-02-28T05:25:22.621Z,0.13
2023-02-28T05:27:54.125Z,0.09
2023-02-28T05:30:22.503Z,0.09
2023-02-28T05:32:53.822Z,0.07
2023-02-28T05:35:26.534Z,0.05
2023-02-28T05:37:53.759Z,0.03
2023-02-28T05:40:21.549Z,0.02
2023-02-28T05:49:32.383Z,0.07
2023-02-28T05:52:12.292Z,0.09
2023-02-28T05:54:41.720Z,0.09
2023-02-28T05:57:15.684Z,0.09
2023-02-28T05:59:53.587Z,0.09
2023-02-28T06:02:21.331Z,0.08
2023-02-28T06:04:54.390Z,0.07
2023-02-28T06:07:23.549Z,0.07
2023-02-28T06:09:52.933Z,0.08
2023-02-28T06:12:22.621Z,0.08
2023-02-28T06:14:55.696Z,0.11
2023-02-28T06:17:25.632Z,0.12
2023-02-28T06:19:55.924Z,0.13
2023-02-28T06:25:12.299Z,0.14
2023-02-28T06:27:45.038Z,0.14
2023-02-28T06:30:26.284Z,0.11
2023-02-28T06:32:56.461Z,0.09
2023-02-28T06:35:28.047Z,0.08
2023-02-28T06:37:58.612Z,0.11
2023-02-28T06:40:26.763Z,0.10
2023-02-28T06:42:58.661Z,0.13
2023-02-28T06:45:28.030Z,0.14
2023-02-28T06:48:02.957Z,0.14
2023-02-28T06:50:31.983Z,0.07
2023-02-28T06:55:55.446Z,0.10
2023-02-28T06:58:32.135Z,0.25
2023-02-28T07:01:01.408Z,0.29
2023-02-28T07:03:30.197Z,0.29
2023-02-28T07:06:05.133Z,0.27
2023-02-28T07:08:48.888Z,0.24
2023-02-28T07:11:41.823Z,0.18
2023-02-28T07:14:14.059Z,0.20
2023-02-28T07:16:41.682Z,0.22
2023-02-28T07:19:18.953Z,0.35
2023-02-28T07:21:49.381Z,0.46
2023-02-28T07:24:21.807Z,0.61
2023-02-28T07:27:03.124Z,0.88
2023-02-28T07:29:34.044Z,1.32
2023-02-28T07:32:04.346Z,1.57
2023-02-28T07:34:46.990Z,1.65
2023-02-28T07:37:14.567Z,1.67
2023-02-28T07:39:43.598Z,1.66
2023-02-28T07:42:14.503Z,1.60
2023-02-28T07:44:43.625Z,1.60
2023-02-28T07:47:11.597Z,1.60
2023-02-28T07:49:45.022Z,1.58
2023-02-28T07:52:15.029Z,1.58
2023-02-28T07:54:44.918Z,1.64
2023-02-28T07:57:21.548Z,1.69
2023-02-28T07:59:52.008Z,1.79
2023-02-28T08:02:19.764Z,1.81
2023-02-28T08:04:49.148Z,1.87
2023-02-28T08:07:18.355Z,1.86
2023-02-28T08:09:49.234Z,1.88
2023-02-28T08:12:16.438Z,1.83
2023-02-28T08:14:44.078Z,1.84
2023-02-28T08:17:14.380Z,1.87
2023-02-28T08:19:44.358Z,1.81
2023-02-28T08:22:18.008Z,1.76
2023-02-28T08:24:50.283Z,1.78
2023-02-28T08:27:27.725Z,1.79
2023-02-28T08:29:57.639Z,1.81
2023-02-28T08:32:30.133Z,1.79
2023-02-28T08:35:00.276Z,1.75
2023-02-28T08:40:30.752Z,1.73
2023-02-28T08:43:00.694Z,1.74
2023-02-28T08:45:30.123Z,1.79
2023-02-28T08:47:58.238Z,1.79
2023-02-28T08:50:25.833Z,1.72
2023-02-28T08:52:53.637Z,1.75
2023-02-28T08:55:23.095Z,1.79
2023-02-28T08:57:50.830Z,1.76
2023-02-28T09:00:21.465Z,1.78
2023-02-28T09:02:50.164Z,1.81
2023-02-28T09:05:19.716Z,1.90
2023-02-28T09:07:49.295Z,1.91
2023-02-28T09:10:19.747Z,2.00
2023-02-28T09:12:48.855Z,2.02
2023-02-28T09:15:16.519Z,2.01
2023-02-28T09:17:46.736Z,2.01
2023-02-28T09:20:16.852Z,2.08
2023-02-28T09:22:44.497Z,2.01
2023-02-28T09:25:20.017Z,1.97
2023-02-28T09:27:49.813Z,2.02
2023-02-28T09:30:17.575Z,2.12
2023-02-28T09:32:52.949Z,2.05
2023-02-28T09:35:27.257Z,2.05
2023-02-28T09:37:59.314Z,2.03
2023-02-28T09:40:28.763Z,2.01
2023-02-28T09:42:58.353Z,2.08
2023-02-28T09:45:50.014Z,2.12
2023-02-28T09:48:25.641Z,2.22
2023-02-28T09:51:06.852Z,2.23
2023-02-28T09:53:40.106Z,2.26
2023-02-28T09:56:30.272Z,2.33
2023-02-28T09:59:24.351Z,2.30
2023-02-28T10:02:20.453Z,2.30
2023-02-28T10:04:59.587Z,2.33
2023-02-28T10:08:11.047Z,2.41
2023-02-28T10:10:42.535Z,2.41
2023-02-28T10:13:46.097Z,2.48
2023-02-28T10:16:21.684Z,2.54
2023-02-28T10:19:22.956Z,2.56
2023-02-28T10:22:01.003Z,2.58
2023-02-28T10:24:42.982Z,2.65
2023-02-28T10:27:26.216Z,2.76
2023-02-28T10:30:01.521Z,2.71
2023-02-28T10:32:35.120Z,2.73
2023-02-28T10:35:21.929Z,2.80
2023-02-28T10:37:58.790Z,2.83
2023-02-28T10:40:33.790Z,2.85
2023-02-28T10:43:29.287Z,2.97
2023-02-28T10:46:27.845Z,3.89
2023-02-28T10:49:17.562Z,4.94
2023-02-28T10:51:49.312Z,5.67
2023-02-28T10:54:39.116Z,6.45
2023-02-28T10:57:25.604Z,7.10
2023-02-28T11:00:24.208Z,7.57
2023-02-28T11:02:54.501Z,8.19
2023-02-28T11:05:43.928Z,8.70
2023-02-28T11:08:19.495Z,8.99
2023-02-28T11:10:59.073Z,9.12
2023-02-28T11:13:36.648Z,9.16
2023-02-28T11:16:08.270Z,9.05
2023-02-28T11:18:50.239Z,8.88
2023-02-28T11:21:30.350Z,8.95
2023-02-28T11:24:46.712Z,9.04
2023-02-28T11:27:32.540Z,9.10
2023-02-28T11:30:02.242Z,9.28
2023-02-28T11:32:32.764Z,9.31
2023-02-28T11:35:31.711Z,9.44
2023-02-28T11:38:00.293Z,9.25
2023-02-28T11:40:59.320Z,8.94
2023-02-28T11:44:06.478Z,8.66
2023-02-28T11:46:52.486Z,8.34
2023-02-28T11:49:50.750Z,8.08
2023-02-28T11:53:14.594Z,8.04
2023-02-28T11:56:27.047Z,8.01
2023-02-28T11:59:39.735Z,7.96
2023-02-28T12:02:27.106Z,7.85
2023-02-28T12:05:25.188Z,7.80
2023-02-28T12:08:15.255Z,7.84
2023-02-28T12:11:16.297Z,8.00
2023-02-28T12:14:10.988Z,8.26
2023-02-28T12:17:30.674Z,8.37
2023-02-28T12:20:15.383Z,8.43
2023-02-28T12:23:41.752Z,8.49
2023-02-28T12:26:48.369Z,8.52
2023-02-28T12:29:43.936Z,8.59
2023-02-28T12:32:23.037Z,8.47
2023-02-28T12:35:02.777Z,8.34
2023-02-28T12:37:51.383Z,8.25
2023-02-28T12:40:31.187Z,8.14
2023-02-28T12:43:09.423Z,8.28
2023-02-28T12:46:09.109Z,8.21
2023-02-28T12:49:34.300Z,7.96
2023-02-28T12:52:05.281Z,7.82
2023-02-28T12:54:51.791Z,7.73
2023-02-28T12:57:59.756Z,7.72
2023-02-28T13:00:44.739Z,7.65
2023-02-28T13:04:03.439Z,7.75
2023-02-28T13:06:54.037Z,7.87
2023-02-28T13:09:22.366Z,7.99
2023-02-28T13:11:59.604Z,8.16
2023-02-28T13:14:34.335Z,8.32
2023-02-28T13:17:23.720Z,8.33
2023-02-28T13:19:54.889Z,8.34
2023-02-28T13:22:27.702Z,8.14
2023-02-28T13:25:03.885Z,8.03
2023-02-28T13:27:44.130Z,7.89
2023-02-28T13:30:52.780Z,7.86
2023-02-28T13:33:40.064Z,8.05
2023-02-28T13:36:16.893Z,8.22
2023-02-28T13:41:49.493Z,8.34
2023-02-28T13:44:28.160Z,8.67
2023-02-28T13:47:34.932Z,9.05
2023-02-28T13:50:56.089Z,9.39
2023-02-28T13:57:48.461Z,9.40
2023-02-28T14:01:07.616Z,9.46
2023-02-28T14:04:29.408Z,9.57
2023-02-28T14:07:00.363Z,9.56
2023-02-28T14:09:57.438Z,9.33
2023-02-28T14:13:03.045Z,9.51
2023-02-28T14:15:54.403Z,9.75
2023-02-28T14:18:53.482Z,9.77
2023-02-28T14:21:39.339Z,9.67
2023-02-28T14:24:41.238Z,9.65
2023-02-28T14:27:30.376Z,9.65
2023-02-28T14:30:42.425Z,9.65
2023-02-28T14:33:54.311Z,9.46
2023-02-28T14:36:52.821Z,9.45
2023-02-28T14:39:52.257Z,9.56
2023-02-28T14:43:13.220Z,9.91
2023-02-28T14:48:51.078Z,10.42
2023-02-28T14:51:39.812Z,10.70
2023-02-28T14:54:08.784Z,10.87
2023-02-28T14:56:40.794Z,11.18
2023-02-28T14:59:36.369Z,11.33
2023-02-28T15:02:44.981Z,11.28
2023-02-28T15:05:23.005Z,11.01
2023-02-28T15:08:10.269Z,10.54
2023-02-28T15:10:42.829Z,10.05
2023-02-28T15:13:19.842Z,9.80
2023-02-28T15:16:17.878Z,9.94
2023-02-28T15:19:17.713Z,9.94
2023-02-28T15:22:01.302Z,10.15
2023-02-28T15:24:54.374Z,10.46
2023-02-28T15:27:28.374Z,10.49
2023-02-28T15:30:01.835Z,10.71
2023-02-28T15:32:43.098Z,10.95
2023-02-28T15:35:32.885Z,11.06
2023-02-28T15:38:50.897Z,11.35
2023-02-28T15:41:41.042Z,11.35
2023-02-28T15:44:38.056Z,11.47
2023-02-28T15:47:31.725Z,11.46
2023-02-28T15:50:14.517Z,11.34
2023-02-28T15:52:55.120Z,11.54
2023-02-28T15:55:38.353Z,11.52
2023-02-28T15:58:15.664Z,11.25
2023-02-28T16:01:35.590Z,10.88
2023-02-28T16:04:19.146Z,10.55
2023-02-28T16:07:08.797Z,10.56
2023-02-28T16:09:43.647Z,10.74
2023-02-28T16:12:14.592Z,10.76
2023-02-28T16:14:57.422Z,10.63
2023-02-28T16:17:32.469Z,10.40
2023-02-28T16:20:14.395Z,10.41
2023-02-28T16:22:55.559Z,10.46
2023-02-28T16:25:36.492Z,10.51
2023-02-28T16:28:13.626Z,10.42
2023-02-28T16:30:43.133Z,10.31
2023-02-28T16:33:30.521Z,10.15
2023-02-28T16:36:16.000Z,9.31
2023-02-28T16:38:50.969Z,8.42
2023-02-28T16:41:35.496Z,7.72
2023-02-28T16:44:15.094Z,7.22
2023-02-28T16:46:45.745Z,6.76
2023-02-28T16:49:15.676Z,6.45
2023-02-28T16:51:45.832Z,6.15
2023-02-28T16:54:13.102Z,5.87
2023-02-28T16:56:48.978Z,5.66
2023-02-28T16:59:30.444Z,5.44
2023-02-28T17:02:25.086Z,5.26
2023-02-28T17:08:42.182Z,4.97
2023-02-28T17:11:19.927Z,4.83
2023-02-28T17:13:59.402Z,4.73
2023-02-28T17:16:36.498Z,4.61
2023-02-28T17:19:25.795Z,4.49
2023-02-28T17:22:04.298Z,4.39
2023-02-28T17:25:32.183Z,4.31
2023-02-28T17:40:31.278Z,3.86
2023-02-28T17:43:13.675Z,3.81
2023-02-28T17:45:51.137Z,3.72
2023-02-28T17:48:33.940Z,3.66
2023-02-28T17:51:38.133Z,3.61
2023-02-28T17:54:08.957Z,3.55
2023-02-28T17:56:41.049Z,3.50
2023-02-28T17:59:11.809Z,3.46
2023-02-28T18:01:41.762Z,3.42
2023-02-28T18:04:22.058Z,3.37
2023-02-28T18:07:10.347Z,3.34
2023-02-28T18:09:41.109Z,3.29
2023-02-28T18:12:09.932Z,3.22
2023-02-28T18:14:46.236Z,3.20
2023-02-28T18:17:14.965Z,3.15
2023-02-28T18:22:40.438Z,3.07
2023-02-28T18:25:15.690Z,3.03
2023-02-28T18:27:54.491Z,2.99
2023-02-28T18:30:34.952Z,2.93
2023-02-28T18:33:12.827Z,2.90
2023-02-28T18:36:04.598Z,2.83
2023-02-28T18:38:39.863Z,2.78
2023-02-28T18:41:23.444Z,2.74
2023-02-28T18:43:54.709Z,2.72
2023-02-28T18:46:27.922Z,2.64
2023-02-28T18:48:57.190Z,2.59
2023-02-28T18:51:30.979Z,2.55
2023-02-28T18:54:02.395Z,2.51
2023-02-28T18:56:42.352Z,2.48
2023-02-28T18:59:12.583Z,2.42
2023-02-28T19:01:41.542Z,2.38
2023-02-28T19:04:21.493Z,2.36
2023-02-28T19:06:59.671Z,2.30
2023-02-28T19:09:36.691Z,2.21
2023-02-28T19:12:07.123Z,2.17
2023-02-28T19:14:38.204Z,2.12
2023-02-28T19:17:14.907Z,2.10
2023-02-28T19:19:46.229Z,2.06
2023-02-28T19:22:20.595Z,2.01
2023-02-28T19:24:54.471Z,1.98
2023-02-28T19:27:39.483Z,1.94
2023-02-28T19:30:10.053Z,1.88
2023-02-28T19:32:38.807Z,1.87
2023-02-28T19:35:07.098Z,1.83
2023-02-28T19:37:39.919Z,1.80
2023-02-28T19:40:19.957Z,1.73
2023-02-28T19:42:50.661Z,1.71
2023-02-28T19:45:24.220Z,1.69
2023-02-28T19:47:52.581Z,1.67
2023-02-28T19:50:24.289Z,1.64
2023-02-28T19:52:54.509Z,1.60
2023-02-28T19:55:22.204Z,1.54
2023-02-28T19:57:49.587Z,1.51
2023-02-28T20:00:25.490Z,1.49
2023-02-28T20:02:57.922Z,1.46
2023-02-28T20:05:26.258Z,1.43
2023-02-28T20:07:54.994Z,1.38
2023-02-28T20:10:35.153Z,1.35
2023-02-28T20:13:03.782Z,1.32
2023-02-28T20:15:34.709Z,1.28
2023-02-28T20:18:03.396Z,1.28
2023-02-28T20:20:36.849Z,1.27
2023-02-28T20:23:05.466Z,1.22
2023-02-28T20:25:36.498Z,1.21
2023-02-28T20:28:05.496Z,1.17
2023-02-28T20:30:37.954Z,1.13
2023-02-28T20:33:07.208Z,1.10
2023-02-28T20:35:41.121Z,1.07
2023-02-28T20:38:17.044Z,1.02
2023-02-28T20:41:00.990Z,1.01
2023-02-28T20:43:32.137Z,0.97
2023-02-28T20:46:07.550Z,0.98
2023-02-28T20:48:42.637Z,0.95
2023-02-28T20:51:11.928Z,0.93
2023-02-28T20:53:58.545Z,0.88
2023-02-28T20:56:30.660Z,0.85
2023-02-28T20:59:02.831Z,0.83
2023-02-28T21:01:34.063Z,0.82
2023-02-28T21:04:12.649Z,0.80
2023-02-28T21:06:47.572Z,0.79
2023-02-28T21:09:19.602Z,0.79
2023-02-28T21:11:55.439Z,0.76
2023-02-28T21:14:34.866Z,0.76
2023-02-28T21:17:17.618Z,0.75
2023-02-28T21:19:45.344Z,0.75
2023-02-28T21:22:18.598Z,0.76
2023-02-28T21:24:50.863Z,0.74
2023-02-28T21:27:22.562Z,0.71
2023-02-28T21:29:50.542Z,0.74
2023-02-28T21:32:30.683Z,0.68
2023-02-28T21:35:05.924Z,0.70
2023-02-28T21:37:33.558Z,0.66
2023-02-28T21:40:01.082Z,0.65
2023-02-28T21:42:31.416Z,0.63
2023-02-28T21:45:02.186Z,0.62
2023-02-28T21:47:32.883Z,0.60
2023-02-28T21:50:09.723Z,0.59
2023-02-28T21:52:48.048Z,0.56
2023-02-28T21:55:31.382Z,0.55
2023-02-28T21:58:02.350Z,0.53
2023-02-28T22:00:32.383Z,0.53
2023-02-28T22:03:00.018Z,0.49
2023-02-28T22:05:30.118Z,0.45
2023-02-28T22:08:01.352Z,0.47
2023-02-28T22:10:46.211Z,0.44
2023-02-28T22:13:14.746Z,0.44
2023-02-28T22:15:51.917Z,0.44
2023-02-28T22:18:22.165Z,0.41
2023-02-28T22:20:57.500Z,0.40
2023-02-28T22:23:24.822Z,0.34
2023-02-28T22:25:53.854Z,0.30
2023-02-28T22:28:31.656Z,0.22
2023-02-28T22:31:27.148Z,0.14
2023-02-28T22:34:03.086Z,0.09
2023-02-28T22:36:39.195Z,0.03
2023-02-28T22:39:09.499Z,-0.02
2023-02-28T22:41:42.521Z,-0.06
2023-02-28T22:44:14.913Z,-0.07
2023-02-28T22:47:03.536Z,-0.13
2023-02-28T22:49:41.118Z,-0.14
2023-02-28T22:52:14.763Z,-0.15
2023-02-28T22:54:45.781Z,-0.17
2023-02-28T22:57:13.505Z,-0.20
2023-02-28T22:59:41.619Z,-0.23
2023-02-28T23:02:21.845Z,-0.28
2023-02-28T23:07:41.133Z,-0.34
2023-02-28T23:10:15.198Z,-0.31
2023-02-28T23:12:53.897Z,-0.34
2023-02-28T23:15:23.278Z,-0.38
2023-02-28T23:17:52.469Z,-0.44
2023-02-28T23:20:21.805Z,-0.47
2023-02-28T23:22:54.626Z,-0.52
2023-02-28T23:25:22.422Z,-0.56
2023-02-28T23:27:50.377Z,-0.58
2023-02-28T23:30:19.076Z,-0.62
2023-02-28T23:32:53.643Z,-0.64
2023-02-28T23:35:22.740Z,-0.68
2023-02-28T23:37:51.893Z,-0.68
2023-02-28T23:40:21.685Z,-0.68
2023-02-28T23:42:51.376Z,-0.72
2023-02-28T23:45:19.753Z,-0.76
2023-02-28T23:47:50.616Z,-0.78
2023-02-28T23:50:21.506Z,-0.78
2023-02-28T23:52:55.611Z,-0.79
2023-02-28T23:55:24.928Z,-0.82
2023-02-28T23:57:53.699Z,-0.86
